createdAt,value
2023-03-20T00:01:49.299Z,18.8
2023-03-20T00:07:42.150Z,18.1
2023-03-20T00:13:21.194Z,17.9
2023-03-20T00:19:13.800Z,17.8
2023-03-20T00:24:51.284Z,17.7
2023-03-20T00:30:44.200Z,17.5
2023-03-20T00:36:21.439Z,19.6
2023-03-20T00:41:58.602Z,20.1
2023-03-20T00:47:35.936Z,19.1
2023-03-20T00:53:13.859Z,20.8
2023-03-20T00:59:06.538Z,20.1
2023-03-20T01:04:59.547Z,18.9
2023-03-20T01:10:51.900Z,18.2
2023-03-20T01:16:13.935Z,17.9
2023-03-20T01:22:06.236Z,17.8
2023-03-20T01:27:43.774Z,17.6
2023-03-20T01:33:36.621Z,17.6
2023-03-20T01:39:29.943Z,19.1
2023-03-20T01:45:21.437Z,20.6
2023-03-20T01:51:14.391Z,20.7
2023-03-20T01:56:50.740Z,19.1
2023-03-20T02:02:43.108Z,18.4
2023-03-20T02:08:20.902Z,17.9
2023-03-20T02:13:57.677Z,17.8
2023-03-20T02:19:19.915Z,17.6
2023-03-20T02:25:12.643Z,17.6
2023-03-20T02:31:05.020Z,17.9
2023-03-20T02:36:43.900Z,20.2
2023-03-20T02:42:37.408Z,20.9
2023-03-20T02:48:30.819Z,19.6
2023-03-20T03:00:00.927Z,18
2023-03-20T03:05:38.092Z,17.8
2023-03-20T03:10:59.786Z,17.6
2023-03-20T03:16:37.906Z,17.6
2023-03-20T03:22:15.757Z,17.4
2023-03-20T03:28:01.187Z,19.2
2023-03-20T03:33:54.482Z,20.5
2023-03-20T03:39:31.416Z,21.1
2023-03-20T03:45:08.737Z,19.2
2023-03-20T03:51:01.123Z,18.4
2023-03-20T03:56:22.756Z,17.9
2023-03-20T04:02:00.658Z,17.8
2023-03-20T04:07:55.895Z,17.6
2023-03-20T04:13:32.197Z,17.5
2023-03-20T04:19:12.550Z,17.4
2023-03-20T04:24:50.337Z,19.8
2023-03-20T04:30:46.277Z,18.8
2023-03-20T04:36:38.797Z,18.8
2023-03-20T04:42:17.848Z,20.5
2023-03-20T04:47:53.835Z,20.6
2023-03-20T04:53:46.086Z,19
2023-03-20T04:59:22.844Z,18.3
2023-03-20T05:05:19.312Z,17.8
2023-03-20T05:11:11.623Z,17.8
2023-03-20T05:16:49.748Z,17.5
2023-03-20T05:22:41.832Z,17.4
2023-03-20T05:28:34.555Z,18.2
2023-03-20T05:34:28.848Z,20.3
2023-03-20T05:40:22.820Z,21
2023-03-20T05:45:59.618Z,19.3
2023-03-20T05:51:37.196Z,18.5
2023-03-20T05:57:32.765Z,17.9
2023-03-20T06:03:25.752Z,17.8
2023-03-20T06:09:18.036Z,17.6
2023-03-20T06:15:12.623Z,17.5
2023-03-20T06:21:05.676Z,17.4
2023-03-20T06:26:59.408Z,20.1
2023-03-20T06:32:52.314Z,21
2023-03-20T06:38:44.699Z,19.4
2023-03-20T06:44:51.996Z,18.5
2023-03-20T06:50:29.040Z,17.9
2023-03-20T06:56:20.910Z,17.8
2023-03-20T07:02:13.723Z,17.6
2023-03-20T07:08:06.756Z,18
2023-03-20T07:13:59.378Z,20.4
2023-03-20T07:20:11.892Z,20.8
2023-03-20T07:26:16.270Z,18.8
2023-03-20T07:32:10.486Z,18.2
2023-03-20T07:38:03.779Z,18.5
2023-03-20T07:43:57.159Z,20.8
2023-03-20T07:49:50.193Z,19.6
2023-03-20T07:55:44.837Z,18.4
2023-03-20T08:01:37.355Z,17.9
2023-03-20T08:07:32.214Z,20.3
2023-03-20T08:13:26.633Z,20.5
2023-03-20T08:19:35.400Z,18.6
2023-03-20T08:25:27.958Z,18.1
2023-03-20T08:31:17.502Z,18.9
2023-03-20T08:37:26.266Z,21.3
2023-03-20T08:43:19.138Z,19.1
2023-03-20T08:49:11.932Z,18.3
2023-03-20T08:55:04.335Z,17.9
2023-03-20T09:00:57.099Z,20.7
2023-03-20T09:06:51.807Z,19.9
2023-03-20T09:12:00.170Z,18.5
2023-03-20T09:17:57.813Z,18.1
2023-03-20T09:23:34.886Z,18.6
2023-03-20T09:29:27.882Z,21.4
2023-03-20T09:35:06.232Z,19.2
2023-03-20T09:41:01.410Z,18.4
2023-03-20T09:47:18.802Z,17.9
2023-03-20T09:53:11.846Z,20.6
2023-03-20T09:59:19.080Z,20.2
2023-03-20T10:04:58.664Z,18.5
2023-03-20T10:10:51.994Z,18.1
2023-03-20T10:16:46.346Z,18.3
2023-03-20T10:22:37.687Z,21.6
2023-03-20T10:28:16.167Z,19.1
2023-03-20T10:34:10.180Z,18.3
2023-03-20T10:40:02.993Z,18
2023-03-20T10:45:55.771Z,17.7
2023-03-20T10:51:34.591Z,17.4
2023-03-20T10:57:27.177Z,17.2
2023-03-20T11:08:54.346Z,16.8
2023-03-20T11:14:49.725Z,16.6
2023-03-20T11:20:45.526Z,16.5
2023-03-20T11:26:40.804Z,16.3
2023-03-20T11:32:45.399Z,16.2
2023-03-20T11:38:50.422Z,16.1
2023-03-20T11:44:44.280Z,15.9
2023-03-20T11:50:37.437Z,15.8
2023-03-20T11:56:33.562Z,15.8
2023-03-20T12:02:27.759Z,15.6
2023-03-20T12:08:21.525Z,15.6
2023-03-20T12:14:13.887Z,15.4
2023-03-20T12:20:07.680Z,15.4
2023-03-20T12:26:00.467Z,15.3
2023-03-20T12:31:53.669Z,15.3
2023-03-20T12:37:47.255Z,15.2
2023-03-20T12:43:40.309Z,15.2
2023-03-20T12:49:05.104Z,15.1
2023-03-20T12:54:58.363Z,15
2023-03-20T13:00:51.040Z,15
2023-03-20T13:06:28.142Z,14.9
2023-03-20T13:12:21.542Z,14.9
2023-03-20T13:18:15.644Z,14.9
2023-03-20T13:23:37.899Z,14.8
2023-03-20T13:29:33.906Z,14.8
2023-03-20T13:35:28.571Z,14.8
2023-03-20T13:41:31.406Z,14.8
2023-03-20T13:47:29.102Z,14.7
2023-03-20T13:53:23.151Z,14.7
2023-03-20T13:59:00.837Z,14.7
2023-03-20T14:04:39.000Z,14.6
2023-03-20T14:10:03.339Z,14.6
2023-03-20T14:15:41.315Z,14.6
2023-03-20T14:21:03.913Z,14.6
2023-03-20T14:26:25.706Z,14.6
2023-03-20T14:31:50.571Z,14.6
2023-03-20T14:37:44.808Z,14.6
2023-03-20T14:43:21.239Z,14.5
2023-03-20T14:49:16.379Z,14.5
2023-03-20T14:55:10.642Z,14.5
2023-03-20T15:00:59.120Z,14.5
2023-03-20T15:06:53.875Z,14.5
2023-03-20T15:12:48.940Z,14.5
2023-03-20T15:18:41.721Z,14.5
2023-03-20T15:24:36.915Z,14.5
2023-03-20T15:30:32.553Z,14.5
2023-03-20T15:36:24.085Z,14.5
2023-03-20T15:42:29.872Z,14.5
2023-03-20T15:48:45.153Z,14.5
2023-03-20T15:54:22.199Z,14.4
2023-03-20T15:59:55.726Z,14.5
2023-03-20T16:05:51.088Z,14.4
2023-03-20T16:11:44.478Z,14.5
2023-03-20T16:17:37.420Z,14.4
2023-03-20T16:23:31.174Z,14.4
2023-03-20T16:29:22.912Z,14.4
2023-03-20T16:35:17.385Z,14.5
2023-03-20T16:41:11.551Z,14.5
2023-03-20T16:47:04.081Z,14.4
2023-03-20T16:52:57.053Z,14.5
2023-03-20T16:58:34.485Z,14.4
2023-03-20T17:03:56.090Z,14.4
2023-03-20T17:09:33.549Z,14.4
2023-03-20T17:15:27.632Z,14.4
2023-03-20T17:21:19.675Z,14.4
2023-03-20T17:27:14.072Z,14.4
2023-03-20T17:33:08.592Z,14.4
2023-03-20T17:38:30.257Z,14.4
2023-03-20T17:44:23.381Z,14.4
2023-03-20T17:50:32.662Z,14.4
2023-03-20T17:56:12.109Z,14.4
2023-03-20T18:02:07.169Z,14.4
2023-03-20T18:08:00.844Z,14.4
2023-03-20T18:13:40.108Z,14.4
2023-03-20T18:19:33.073Z,14.4
2023-03-20T18:25:11.745Z,14.4
2023-03-20T18:30:47.829Z,14.4
2023-03-20T18:35:38.948Z,14.4
2023-03-20T18:41:01.530Z,14.4
2023-03-20T18:46:07.648Z,14.4
2023-03-20T18:51:29.826Z,14.4
2023-03-20T18:57:07.932Z,14.4
2023-03-20T19:03:02.049Z,14.4
2023-03-20T19:08:39.709Z,14.4
2023-03-20T19:14:03.120Z,14.4
2023-03-20T19:19:56.846Z,14.4
2023-03-20T19:26:03.869Z,14.4
2023-03-20T19:32:00.553Z,14.4
2023-03-20T19:39:14.028Z,14.4
2023-03-20T19:46:04.493Z,14.4
2023-03-20T19:52:37.807Z,14.4
2023-03-20T19:58:10.145Z,14.3
2023-03-20T20:04:52.135Z,14.3
2023-03-20T20:12:06.826Z,14.4
2023-03-20T20:18:25.358Z,16.1
2023-03-20T20:25:42.378Z,20.3
2023-03-20T20:32:04.107Z,20.4
2023-03-20T20:41:04.303Z,19.6
2023-03-20T20:47:13.975Z,19.7
2023-03-20T20:53:15.511Z,20.4
2023-03-20T20:59:29.448Z,21.9
2023-03-20T21:05:37.685Z,19.3
2023-03-20T21:12:01.644Z,21.2
2023-03-20T21:17:59.879Z,20.4
2023-03-20T21:23:55.319Z,18.9
2023-03-20T21:30:27.301Z,20.9
2023-03-20T21:36:49.054Z,20.9
2023-03-20T21:43:50.221Z,18.9
2023-03-20T22:38:59.629Z,19.3
2023-03-20T22:49:44.111Z,20.4
2023-03-20T22:56:02.791Z,18.8
2023-03-20T23:02:00.968Z,18.4
2023-03-20T23:08:17.541Z,21.4
2023-03-20T23:14:20.719Z,20.1
2023-03-20T23:20:28.326Z,18.9
2023-03-20T23:26:12.898Z,18.5
2023-03-20T23:32:24.201Z,20.3
2023-03-20T23:38:33.059Z,21.4
2023-03-20T23:45:20.304Z,19.3
2023-03-20T23:51:59.706Z,18.6
2023-03-20T23:58:07.476Z,19.6
